createdAt,value
2017-10-19T00:00:33.382Z,98.83
2017-10-19T00:03:01.765Z,79.87
2017-10-19T00:05:29.305Z,60.20
2017-10-19T00:07:57.849Z,65.97
2017-10-19T00:10:25.416Z,53.53
2017-10-19T00:12:53.018Z,57.10
2017-10-19T00:15:20.879Z,68.60
2017-10-19T00:17:49.248Z,59.70
2017-10-19T00:20:17.718Z,57.73
2017-10-19T00:22:45.298Z,47.77
2017-10-19T00:25:13.646Z,39.10
2017-10-19T00:27:41.204Z,43.43
2017-10-19T00:30:08.763Z,50.77
2017-10-19T00:32:36.303Z,72.53
2017-10-19T00:35:03.902Z,57.77
2017-10-19T00:37:31.508Z,62.50
2017-10-19T00:39:59.833Z,62.33
2017-10-19T00:42:27.441Z,62.07
2017-10-19T00:44:55.047Z,56.67
2017-10-19T00:47:22.611Z,52.70
2017-10-19T00:49:50.147Z,44.60
2017-10-19T00:52:18.934Z,50.40
2017-10-19T00:54:46.486Z,52.43
2017-10-19T00:57:14.042Z,41.53
2017-10-19T00:59:41.626Z,48.63
2017-10-19T01:02:09.203Z,55.10
2017-10-19T01:04:37.514Z,51.83
2017-10-19T01:07:05.096Z,51.07
2017-10-19T01:09:32.660Z,44.57
2017-10-19T01:12:00.221Z,54.83
2017-10-19T01:14:27.780Z,49.40
2017-10-19T01:16:55.327Z,61.53
2017-10-19T01:19:22.919Z,74.60
2017-10-19T01:21:50.486Z,68.13
2017-10-19T01:24:18.067Z,54.30
2017-10-19T01:26:45.609Z,51.37
2017-10-19T01:29:13.216Z,49.17
2017-10-19T01:31:40.842Z,52.57
2017-10-19T01:34:08.412Z,44.20
2017-10-19T01:36:36.002Z,56.17
2017-10-19T01:39:03.607Z,54.63
2017-10-19T01:41:31.247Z,57.13
2017-10-19T01:43:58.786Z,56.63
2017-10-19T01:46:26.357Z,71.13
2017-10-19T01:48:53.930Z,52.97
2017-10-19T01:51:21.536Z,55.80
2017-10-19T01:53:49.857Z,54.57
2017-10-19T01:56:17.444Z,65.83
2017-10-19T01:58:44.987Z,61.03
2017-10-19T02:01:12.557Z,61.57
2017-10-19T02:03:40.118Z,65.17
2017-10-19T02:06:07.672Z,69.43
2017-10-19T02:08:35.280Z,68.10
2017-10-19T02:11:02.863Z,61.57
2017-10-19T02:13:31.202Z,55.17
2017-10-19T02:15:58.785Z,53.50
2017-10-19T02:18:26.378Z,61.00
2017-10-19T02:20:54.718Z,59.97
2017-10-19T02:23:22.251Z,73.87
2017-10-19T02:25:49.835Z,65.80
2017-10-19T02:28:17.390Z,64.77
2017-10-19T02:30:44.991Z,61.03
2017-10-19T02:33:12.524Z,62.57
2017-10-19T02:35:40.097Z,66.83
2017-10-19T02:38:07.637Z,60.03
2017-10-19T02:40:35.191Z,59.33
2017-10-19T02:43:02.729Z,69.63
2017-10-19T02:45:31.062Z,75.03
2017-10-19T02:47:58.625Z,65.40
2017-10-19T02:50:26.199Z,69.87
2017-10-19T02:52:53.756Z,52.17
2017-10-19T02:55:21.296Z,62.63
2017-10-19T02:57:48.883Z,73.53
2017-10-19T03:00:16.465Z,54.50
2017-10-19T03:02:44.029Z,48.00
2017-10-19T03:05:11.612Z,53.57
2017-10-19T03:07:39.189Z,47.13
2017-10-19T03:10:06.752Z,43.00
2017-10-19T03:12:34.296Z,44.50
2017-10-19T03:15:01.862Z,46.33
2017-10-19T03:17:29.646Z,38.40
2017-10-19T03:19:57.246Z,39.07
2017-10-19T03:22:25.584Z,44.13
2017-10-19T03:24:53.935Z,42.90
2017-10-19T03:27:21.485Z,52.43
2017-10-19T03:29:49.067Z,59.27
2017-10-19T03:32:16.667Z,43.60
2017-10-19T03:34:44.192Z,45.43
2017-10-19T03:37:11.748Z,38.77
2017-10-19T03:39:39.324Z,44.07
2017-10-19T03:42:06.900Z,45.10
2017-10-19T03:44:34.486Z,45.63
2017-10-19T03:47:02.048Z,52.00
2017-10-19T03:49:29.623Z,41.53
2017-10-19T03:51:57.195Z,44.60
2017-10-19T03:54:24.743Z,40.37
2017-10-19T03:56:52.313Z,38.17
2017-10-19T03:59:19.868Z,34.97
2017-10-19T04:01:47.517Z,31.23
2017-10-19T04:04:15.081Z,30.80
2017-10-19T04:06:42.642Z,30.83
2017-10-19T04:09:10.226Z,27.50
2017-10-19T04:11:37.752Z,27.17
2017-10-19T04:14:05.333Z,20.57
2017-10-19T04:16:32.876Z,30.97
2017-10-19T04:19:00.447Z,29.13
2017-10-19T04:21:28.001Z,34.73
2017-10-19T04:23:55.536Z,29.73
2017-10-19T04:26:23.120Z,25.27
2017-10-19T04:28:50.701Z,26.17
2017-10-19T04:31:18.243Z,24.20
2017-10-19T04:33:46.553Z,27.63
2017-10-19T04:36:14.098Z,33.20
2017-10-19T04:38:41.638Z,34.97
2017-10-19T04:41:09.242Z,32.00
2017-10-19T04:43:36.807Z,29.57
2017-10-19T04:46:04.497Z,30.50
2017-10-19T04:48:32.084Z,36.23
2017-10-19T04:50:59.632Z,39.87
2017-10-19T04:53:27.211Z,35.07
2017-10-19T04:55:54.853Z,29.60
2017-10-19T04:58:23.648Z,35.00
2017-10-19T05:00:51.234Z,30.33
2017-10-19T05:03:18.786Z,36.13
2017-10-19T05:05:46.396Z,36.50
2017-10-19T05:08:14.716Z,33.90
2017-10-19T05:10:42.359Z,27.80
2017-10-19T05:13:10.821Z,26.73
2017-10-19T05:15:39.209Z,26.00
2017-10-19T05:18:07.565Z,21.57
2017-10-19T05:20:35.893Z,27.43
2017-10-19T05:23:03.532Z,30.90
2017-10-19T05:25:31.073Z,22.90
2017-10-19T05:27:58.641Z,28.20
2017-10-19T05:30:26.216Z,31.93
2017-10-19T05:32:54.610Z,28.25
2017-10-19T05:35:22.160Z,31.40
2017-10-19T05:37:49.720Z,28.17
2017-10-19T05:40:17.299Z,24.67
2017-10-19T05:42:45.669Z,29.00
2017-10-19T05:45:13.271Z,28.50
2017-10-19T05:47:40.873Z,24.67
2017-10-19T05:50:08.476Z,26.92
2017-10-19T05:52:37.072Z,25.97
2017-10-19T05:55:04.716Z,23.73
2017-10-19T05:57:32.286Z,21.13
2017-10-19T05:59:59.865Z,23.90
2017-10-19T06:02:27.418Z,30.90
2017-10-19T06:04:55.049Z,23.73
2017-10-19T06:07:22.621Z,18.83
2017-10-19T06:09:50.186Z,24.65
2017-10-19T06:12:18.539Z,19.73
2017-10-19T06:14:46.125Z,19.77
2017-10-19T06:17:13.705Z,20.00
2017-10-19T06:19:41.285Z,16.90
2017-10-19T06:22:09.097Z,13.80
2017-10-19T06:24:36.653Z,10.30
2017-10-19T06:27:04.394Z,11.10
2017-10-19T06:29:33.547Z,11.00
2017-10-19T06:32:01.129Z,10.57
2017-10-19T06:34:29.598Z,12.30
2017-10-19T06:36:57.473Z,9.90
2017-10-19T06:39:25.166Z,11.10
2017-10-19T06:41:53.695Z,11.63
2017-10-19T06:44:21.985Z,9.70
2017-10-19T06:46:50.286Z,9.80
2017-10-19T06:49:17.824Z,8.07
2017-10-19T06:51:55.314Z,10.80
2017-10-19T06:54:23.606Z,9.43
2017-10-19T06:56:51.165Z,12.30
2017-10-19T06:59:19.483Z,12.90
2017-10-19T07:01:47.019Z,10.00
2017-10-19T07:04:14.560Z,9.73
2017-10-19T07:06:42.154Z,7.70
2017-10-19T07:09:09.702Z,9.77
2017-10-19T07:11:37.487Z,7.03
2017-10-19T07:14:05.091Z,9.03
2017-10-19T07:16:32.647Z,9.63
2017-10-19T07:19:00.192Z,11.20
2017-10-19T07:21:27.738Z,15.23
2017-10-19T07:23:56.028Z,8.17
2017-10-19T07:26:23.618Z,8.40
2017-10-19T07:28:51.162Z,6.87
2017-10-19T07:31:18.727Z,8.10
2017-10-19T07:33:46.276Z,9.67
2017-10-19T07:36:15.658Z,11.07
2017-10-19T07:38:43.193Z,6.67
2017-10-19T07:41:10.768Z,10.50
2017-10-19T07:43:38.344Z,11.77
2017-10-19T07:46:05.921Z,10.40
2017-10-19T07:48:33.473Z,9.63
2017-10-19T07:51:02.073Z,6.43
2017-10-19T07:53:29.615Z,8.23
2017-10-19T07:55:57.185Z,6.60
2017-10-19T07:58:25.740Z,8.97
2017-10-19T08:00:53.283Z,6.53
2017-10-19T08:03:20.864Z,16.33
2017-10-19T08:05:48.403Z,7.33
2017-10-19T08:08:15.946Z,6.13
2017-10-19T08:10:44.288Z,6.87
2017-10-19T08:13:11.907Z,6.37
2017-10-19T08:15:39.463Z,6.33
2017-10-19T08:18:07.871Z,6.63
2017-10-19T08:20:36.205Z,7.03
2017-10-19T08:23:03.754Z,6.30
2017-10-19T08:25:31.339Z,6.47
2017-10-19T08:27:58.888Z,6.00
2017-10-19T08:30:27.436Z,6.30
2017-10-19T08:32:55.210Z,6.60
2017-10-19T08:35:22.723Z,6.20
2017-10-19T08:37:50.271Z,5.70
2017-10-19T08:40:17.803Z,6.00
2017-10-19T08:42:45.356Z,5.67
2017-10-19T08:45:13.664Z,6.27
2017-10-19T08:47:41.243Z,6.70
2017-10-19T08:50:08.789Z,4.93
2017-10-19T08:52:36.365Z,6.33
2017-10-19T08:55:07.774Z,6.50
2017-10-19T08:57:36.113Z,9.33
2017-10-19T09:00:03.658Z,5.10
2017-10-19T09:02:31.207Z,5.97
2017-10-19T09:04:58.792Z,4.93
2017-10-19T09:07:26.383Z,5.93
2017-10-19T09:09:53.918Z,5.50
2017-10-19T09:12:21.564Z,7.00
2017-10-19T09:14:49.165Z,5.63
2017-10-19T09:17:16.703Z,5.03
2017-10-19T09:19:44.254Z,4.50
2017-10-19T09:22:11.846Z,10.03
2017-10-19T09:24:39.388Z,6.10
2017-10-19T09:27:07.005Z,6.40
2017-10-19T09:29:34.558Z,4.80
2017-10-19T09:32:02.128Z,6.83
2017-10-19T09:34:29.734Z,4.57
2017-10-19T09:36:58.065Z,7.10
2017-10-19T09:39:25.640Z,4.50
2017-10-19T09:41:53.201Z,5.67
2017-10-19T09:44:20.757Z,4.60
2017-10-19T09:46:48.327Z,4.57
2017-10-19T09:49:15.884Z,5.10
2017-10-19T09:51:43.413Z,5.23
2017-10-19T09:54:10.957Z,5.63
2017-10-19T09:56:39.264Z,8.70
2017-10-19T09:59:06.845Z,10.03
2017-10-19T10:01:34.406Z,8.57
2017-10-19T10:04:01.973Z,7.43
2017-10-19T10:06:29.509Z,11.27
2017-10-19T10:08:57.074Z,5.30
2017-10-19T10:11:25.402Z,7.03
2017-10-19T10:13:52.962Z,7.47
2017-10-19T10:16:20.507Z,5.97
2017-10-19T10:18:48.107Z,7.07
2017-10-19T10:21:15.672Z,13.83
2017-10-19T10:23:43.211Z,5.87
2017-10-19T10:26:10.797Z,5.50
2017-10-19T10:28:38.424Z,12.10
2017-10-19T10:31:05.993Z,5.63
2017-10-19T10:33:33.519Z,9.37
2017-10-19T10:36:01.868Z,5.47
2017-10-19T10:38:29.443Z,5.17
2017-10-19T10:40:56.992Z,5.33
2017-10-19T10:43:24.543Z,6.93
2017-10-19T10:45:52.301Z,5.53
2017-10-19T10:48:19.881Z,6.00
2017-10-19T10:50:47.928Z,4.73
2017-10-19T10:53:15.541Z,5.27
2017-10-19T10:55:43.134Z,5.30
2017-10-19T10:58:10.773Z,8.37
2017-10-19T11:00:38.394Z,5.47
2017-10-19T11:03:06.785Z,5.43
2017-10-19T11:05:34.381Z,4.23
2017-10-19T11:08:01.976Z,7.20
2017-10-19T11:10:29.642Z,4.93
2017-10-19T11:12:57.307Z,5.37
2017-10-19T11:15:24.870Z,5.70
2017-10-19T11:17:52.474Z,6.27
2017-10-19T11:20:20.242Z,5.90
2017-10-19T11:22:47.804Z,5.83
2017-10-19T11:25:17.123Z,14.60
2017-10-19T11:27:44.713Z,6.50
2017-10-19T11:30:13.007Z,11.40
2017-10-19T11:32:40.830Z,7.27
2017-10-19T11:35:08.628Z,14.10
2017-10-19T11:37:37.270Z,7.20
2017-10-19T11:40:06.166Z,5.70
2017-10-19T11:42:35.326Z,6.13
2017-10-19T11:45:03.032Z,12.23
2017-10-19T11:47:32.346Z,7.90
2017-10-19T11:50:00.694Z,6.07
2017-10-19T11:52:28.296Z,8.20
2017-10-19T11:54:55.856Z,9.30
2017-10-19T11:57:24.217Z,7.57
2017-10-19T11:59:51.796Z,9.67
2017-10-19T12:02:20.264Z,11.50
2017-10-19T12:04:47.824Z,10.40
2017-10-19T12:07:15.434Z,10.90
2017-10-19T12:09:43.026Z,11.80
2017-10-19T12:12:10.584Z,11.40
2017-10-19T12:14:38.200Z,10.80
2017-10-19T12:17:05.802Z,12.60
2017-10-19T12:19:33.395Z,12.43
2017-10-19T12:22:00.981Z,12.03
2017-10-19T12:24:28.556Z,12.03
2017-10-19T12:26:56.159Z,11.00
2017-10-19T12:29:23.708Z,11.87
2017-10-19T12:31:52.061Z,11.43
2017-10-19T12:34:19.627Z,10.63
2017-10-19T12:36:47.248Z,10.00
2017-10-19T12:39:14.790Z,9.50
2017-10-19T12:41:43.111Z,8.43
2017-10-19T12:44:10.674Z,7.73
2017-10-19T12:46:38.213Z,14.10
2017-10-19T12:49:05.873Z,8.70
2017-10-19T12:51:33.511Z,8.77
2017-10-19T12:54:01.820Z,9.60
2017-10-19T12:56:30.244Z,9.57
2017-10-19T12:58:57.814Z,19.60
2017-10-19T13:01:25.444Z,20.90
2017-10-19T13:03:53.067Z,16.60
2017-10-19T13:06:20.628Z,12.90
2017-10-19T13:08:49.030Z,11.80
2017-10-19T13:11:17.399Z,14.60
2017-10-19T13:13:44.965Z,13.50
2017-10-19T13:16:12.571Z,13.20
2017-10-19T13:18:41.385Z,13.50
2017-10-19T13:21:09.150Z,14.33
2017-10-19T13:23:36.837Z,13.20
2017-10-19T13:26:04.424Z,13.03
2017-10-19T13:28:33.543Z,19.87
2017-10-19T13:31:01.123Z,14.17
2017-10-19T13:33:29.584Z,13.50
2017-10-19T13:35:57.149Z,11.93
2017-10-19T13:38:25.586Z,13.47
2017-10-19T13:40:53.107Z,14.43
2017-10-19T13:43:21.445Z,12.47
2017-10-19T13:45:49.259Z,13.70
2017-10-19T13:48:17.613Z,12.67
2017-10-19T13:50:45.212Z,12.27
2017-10-19T13:53:13.645Z,15.20
2017-10-19T13:55:42.910Z,16.33
2017-10-19T13:58:13.473Z,10.63
2017-10-19T14:00:45.601Z,10.43
2017-10-19T14:03:13.916Z,12.60
2017-10-19T14:05:41.596Z,9.43
2017-10-19T14:08:09.154Z,7.70
2017-10-19T14:10:36.840Z,7.37
2017-10-19T14:13:04.489Z,7.87
2017-10-19T14:15:33.276Z,8.63
2017-10-19T14:18:00.890Z,8.70
2017-10-19T14:20:28.610Z,8.37
2017-10-19T14:22:57.680Z,7.43
2017-10-19T14:25:26.068Z,8.30
2017-10-19T14:27:54.129Z,8.80
2017-10-19T14:30:22.481Z,7.47
2017-10-19T14:32:50.075Z,7.20
2017-10-19T14:35:18.489Z,7.13
2017-10-19T14:37:46.202Z,7.70
2017-10-19T14:40:13.763Z,10.07
2017-10-19T14:42:41.484Z,8.40
2017-10-19T14:45:10.403Z,9.33
2017-10-19T14:47:37.959Z,13.13
2017-10-19T14:50:06.048Z,10.73
2017-10-19T14:52:33.966Z,6.13
2017-10-19T14:55:03.466Z,6.17
2017-10-19T14:57:31.805Z,7.53
2017-10-19T14:59:59.502Z,9.40
2017-10-19T15:02:27.188Z,6.50
2017-10-19T15:04:55.812Z,12.03
2017-10-19T15:07:23.391Z,6.90
2017-10-19T15:09:50.988Z,5.53
2017-10-19T15:12:18.655Z,7.50
2017-10-19T15:14:47.060Z,11.90
2017-10-19T15:17:14.693Z,8.10
2017-10-19T15:19:42.306Z,7.60
2017-10-19T15:22:11.752Z,12.13
2017-10-19T15:24:39.383Z,9.80
2017-10-19T15:27:07.961Z,5.67
2017-10-19T15:29:35.669Z,10.47
2017-10-19T15:32:03.359Z,18.57
2017-10-19T15:34:30.933Z,5.17
2017-10-19T15:36:58.504Z,11.57
2017-10-19T15:39:26.897Z,8.10
2017-10-19T15:41:54.527Z,14.60
2017-10-19T15:44:22.147Z,7.23
2017-10-19T15:46:49.779Z,8.60
2017-10-19T15:49:17.464Z,8.37
2017-10-19T15:51:46.050Z,10.50
2017-10-19T15:54:13.735Z,8.40
2017-10-19T15:56:41.539Z,8.30
2017-10-19T15:59:10.101Z,7.93
2017-10-19T16:01:37.807Z,7.63
2017-10-19T16:04:06.276Z,7.03
2017-10-19T16:06:33.965Z,7.70
2017-10-19T16:09:01.662Z,6.07
2017-10-19T16:11:29.593Z,6.17
2017-10-19T16:13:57.913Z,5.67
2017-10-19T16:16:25.582Z,5.70
2017-10-19T16:18:53.310Z,8.97
2017-10-19T16:21:21.015Z,10.50
2017-10-19T16:23:48.628Z,10.33
2017-10-19T16:26:16.212Z,11.40
2017-10-19T16:28:44.072Z,9.63
2017-10-19T16:31:11.636Z,6.80
2017-10-19T16:33:39.233Z,7.90
2017-10-19T16:36:06.787Z,9.17
2017-10-19T16:38:34.494Z,6.80
2017-10-19T16:41:02.086Z,11.30
2017-10-19T16:43:29.819Z,11.27
2017-10-19T16:45:57.458Z,7.60
2017-10-19T16:48:25.210Z,8.93
2017-10-19T16:50:52.784Z,9.60
2017-10-19T16:53:20.674Z,9.20
2017-10-19T16:55:48.306Z,6.63
2017-10-19T16:58:16.009Z,11.73
2017-10-19T17:00:43.924Z,10.70
2017-10-19T17:03:12.261Z,6.27
2017-10-19T17:05:39.907Z,12.20
2017-10-19T17:10:52.559Z,6.93
2017-10-19T17:13:27.942Z,6.87
2017-10-19T17:15:56.095Z,10.13
2017-10-19T17:18:23.705Z,11.67
2017-10-19T17:20:51.330Z,16.70
2017-10-19T17:23:20.113Z,14.47
2017-10-19T17:25:47.993Z,8.23
2017-10-19T17:28:16.367Z,11.40
2017-10-19T17:30:45.049Z,8.10
2017-10-19T17:33:13.826Z,7.53
2017-10-19T17:35:42.532Z,6.17
2017-10-19T17:38:11.439Z,8.03
2017-10-19T17:40:41.256Z,5.83
2017-10-19T17:43:16.349Z,9.93
2017-10-19T17:45:46.041Z,7.23
2017-10-19T17:48:15.782Z,7.53
2017-10-19T17:50:44.533Z,11.93
2017-10-19T17:53:12.896Z,12.37
2017-10-19T17:55:40.498Z,7.27
2017-10-19T17:58:08.881Z,6.30
2017-10-19T18:00:39.366Z,8.50
2017-10-19T18:03:09.017Z,5.70
2017-10-19T18:05:37.011Z,7.10
2017-10-19T18:08:04.930Z,11.27
2017-10-19T18:10:32.665Z,10.00
2017-10-19T18:13:00.430Z,12.63
2017-10-19T18:15:28.203Z,7.30
2017-10-19T18:17:55.845Z,14.10
2017-10-19T18:20:23.673Z,6.77
2017-10-19T18:22:51.350Z,8.43
2017-10-19T18:25:19.936Z,18.20
2017-10-19T18:27:48.382Z,9.33
2017-10-19T18:30:15.966Z,8.50
2017-10-19T18:32:43.527Z,9.47
2017-10-19T18:35:11.244Z,8.63
2017-10-19T18:37:38.855Z,9.93
2017-10-19T18:40:06.940Z,7.67
2017-10-19T18:42:34.933Z,10.40
2017-10-19T18:45:03.300Z,9.60
2017-10-19T18:47:32.388Z,10.30
2017-10-19T18:50:00.080Z,8.37
2017-10-19T18:52:27.621Z,9.20
2017-10-19T18:54:55.390Z,8.30
2017-10-19T18:57:22.960Z,7.97
2017-10-19T18:59:54.152Z,21.50
2017-10-19T19:02:24.012Z,8.80
2017-10-19T19:04:54.732Z,10.90
2017-10-19T19:07:22.600Z,11.50
2017-10-19T19:09:50.151Z,13.70
2017-10-19T19:12:20.910Z,11.37
2017-10-19T19:14:50.637Z,11.03
2017-10-19T19:17:18.216Z,11.10
2017-10-19T19:19:45.927Z,7.40
2017-10-19T19:22:14.308Z,9.77
2017-10-19T19:24:42.644Z,18.20
2017-10-19T19:27:10.399Z,12.50
2017-10-19T19:29:38.133Z,10.10
2017-10-19T19:32:05.774Z,11.73
2017-10-19T19:34:33.555Z,10.33
2017-10-19T19:37:01.890Z,13.40
2017-10-19T19:39:29.906Z,11.13
2017-10-19T19:41:57.921Z,11.67
2017-10-19T19:44:26.347Z,15.80
2017-10-19T19:46:53.897Z,13.10
2017-10-19T19:49:21.569Z,10.70
2017-10-19T19:51:49.136Z,18.87
2017-10-19T19:54:16.823Z,12.80
2017-10-19T19:56:45.264Z,15.87
2017-10-19T19:59:12.860Z,9.20
2017-10-19T20:01:40.449Z,25.27
2017-10-19T20:04:10.979Z,12.63
2017-10-19T20:06:38.550Z,17.67
2017-10-19T20:09:07.867Z,21.27
2017-10-19T20:11:36.192Z,13.53
2017-10-19T20:14:03.827Z,15.60
2017-10-19T20:16:33.734Z,14.63
2017-10-19T20:19:02.063Z,22.67
2017-10-19T20:21:31.350Z,17.97
2017-10-19T20:23:59.028Z,18.70
2017-10-19T20:26:26.609Z,16.23
2017-10-19T20:28:54.170Z,10.63
2017-10-19T20:31:21.863Z,13.40
2017-10-19T20:33:53.378Z,10.63
2017-10-19T20:36:24.359Z,17.63
2017-10-19T20:38:56.337Z,21.80
2017-10-19T20:41:30.358Z,16.60
2017-10-19T20:43:58.038Z,12.00
2017-10-19T20:46:25.602Z,21.83
2017-10-19T20:48:53.215Z,15.70
2017-10-19T20:51:20.814Z,24.87
2017-10-19T20:53:49.164Z,22.20
2017-10-19T20:56:16.721Z,21.03
2017-10-19T20:58:44.281Z,20.13
2017-10-19T21:01:11.864Z,15.97
2017-10-19T21:03:39.424Z,21.30
2017-10-19T21:06:07.012Z,23.30
2017-10-19T21:08:34.629Z,19.57
2017-10-19T21:11:02.245Z,15.87
2017-10-19T21:13:30.583Z,17.43
2017-10-19T21:15:58.225Z,21.10
2017-10-19T21:18:25.833Z,19.80
2017-10-19T21:20:53.429Z,26.07
2017-10-19T21:23:22.769Z,21.93
2017-10-19T21:25:50.361Z,21.30
2017-10-19T21:28:17.953Z,19.47
2017-10-19T21:30:45.528Z,18.23
2017-10-19T21:33:13.559Z,19.50
2017-10-19T21:35:41.301Z,19.27
2017-10-19T21:38:08.883Z,20.57
2017-10-19T21:40:36.715Z,24.30
2017-10-19T21:43:04.338Z,27.40
2017-10-19T21:45:31.963Z,18.23
2017-10-19T21:47:59.531Z,31.37
2017-10-19T21:50:28.202Z,21.63
2017-10-19T21:52:55.830Z,18.27
2017-10-19T21:55:25.232Z,26.53
2017-10-19T21:57:52.806Z,20.77
2017-10-19T22:00:20.833Z,21.60
2017-10-19T22:02:48.463Z,24.33
2017-10-19T22:05:17.028Z,25.73
2017-10-19T22:07:44.723Z,22.70
2017-10-19T22:10:12.455Z,20.37
2017-10-19T22:12:40.032Z,18.80
2017-10-19T22:15:07.589Z,18.33
2017-10-19T22:17:35.167Z,25.93
2017-10-19T22:20:02.798Z,17.50
2017-10-19T22:22:30.421Z,22.00
2017-10-19T22:24:58.809Z,15.53
2017-10-19T22:27:26.377Z,18.50
2017-10-19T22:29:54.715Z,20.10
2017-10-19T22:32:23.078Z,21.47
2017-10-19T22:34:51.446Z,20.30
2017-10-19T22:37:19.005Z,24.80
2017-10-19T22:39:46.601Z,16.70
2017-10-19T22:42:14.186Z,19.10
2017-10-19T22:44:41.800Z,17.53
2017-10-19T22:47:10.158Z,19.53
2017-10-19T22:49:37.700Z,23.77
2017-10-19T22:52:05.313Z,22.13
2017-10-19T22:54:33.629Z,22.50
2017-10-19T22:57:01.261Z,23.77
2017-10-19T22:59:29.779Z,23.33
2017-10-19T23:01:57.350Z,23.13
2017-10-19T23:04:24.930Z,22.20
2017-10-19T23:06:52.573Z,27.93
2017-10-19T23:09:20.132Z,28.63
2017-10-19T23:11:47.814Z,29.53
2017-10-19T23:14:15.420Z,28.47
2017-10-19T23:16:43.807Z,24.23
2017-10-19T23:19:11.404Z,22.87
2017-10-19T23:21:38.996Z,23.57
2017-10-19T23:24:06.568Z,19.00
2017-10-19T23:26:34.128Z,21.47
2017-10-19T23:29:01.741Z,15.80
2017-10-19T23:31:29.304Z,17.00
2017-10-19T23:33:57.642Z,17.30
2017-10-19T23:36:25.212Z,22.07
2017-10-19T23:38:52.737Z,27.10
2017-10-19T23:41:20.291Z,20.63
2017-10-19T23:43:47.886Z,32.23
2017-10-19T23:46:16.470Z,30.17
2017-10-19T23:48:44.062Z,23.00
2017-10-19T23:51:11.693Z,22.10
2017-10-19T23:53:39.371Z,21.17
2017-10-19T23:56:06.937Z,21.83
2017-10-19T23:58:34.498Z,31.40
